sensor_id;sensor_type;location;lat;lon;timestamp;P1;durP1;ratioP1;P2;durP2;ratioP2
36205;SDS011;22242;48.796;9.930;2023-07-24T00:01:42;9.40;;;6.10;;
36205;SDS011;22242;48.796;9.930;2023-07-24T00:04:09;10.85;;;6.40;;
36205;SDS011;22242;48.796;9.930;2023-07-24T00:06:36;11.35;;;6.53;;
36205;SDS011;22242;48.796;9.930;2023-07-24T00:09:04;10.98;;;6.75;;
36205;SDS011;22242;48.796;9.930;2023-07-24T00:11:31;13.43;;;6.65;;
36205;SDS011;22242;48.796;9.930;2023-07-24T00:13:59;11.02;;;6.55;;
36205;SDS011;22242;48.796;9.930;2023-07-24T00:16:26;9.90;;;6.45;;
36205;SDS011;22242;48.796;9.930;2023-07-24T00:18:53;10.70;;;6.80;;
36205;SDS011;22242;48.796;9.930;2023-07-24T00:21:20;10.50;;;6.65;;
36205;SDS011;22242;48.796;9.930;2023-07-24T00:23:47;11.07;;;5.97;;
36205;SDS011;22242;48.796;9.930;2023-07-24T00:26:14;11.18;;;6.68;;
36205;SDS011;22242;48.796;9.930;2023-07-24T00:28:41;9.52;;;5.93;;
36205;SDS011;22242;48.796;9.930;2023-07-24T00:31:09;9.88;;;6.15;;
36205;SDS011;22242;48.796;9.930;2023-07-24T00:33:36;13.13;;;6.60;;
36205;SDS011;22242;48.796;9.930;2023-07-24T00:36:04;10.75;;;6.72;;
36205;SDS011;22242;48.796;9.930;2023-07-24T00:38:31;10.88;;;6.45;;
36205;SDS011;22242;48.796;9.930;2023-07-24T00:40:58;10.75;;;6.70;;
36205;SDS011;22242;48.796;9.930;2023-07-24T00:43:25;11.50;;;6.28;;
36205;SDS011;22242;48.796;9.930;2023-07-24T00:45:54;10.95;;;6.32;;
36205;SDS011;22242;48.796;9.930;2023-07-24T00:48:23;10.50;;;6.65;;
36205;SDS011;22242;48.796;9.930;2023-07-24T00:50:50;10.60;;;6.38;;
36205;SDS011;22242;48.796;9.930;2023-07-24T00:53:17;10.13;;;6.57;;
36205;SDS011;22242;48.796;9.930;2023-07-24T00:55:46;12.50;;;6.60;;
36205;SDS011;22242;48.796;9.930;2023-07-24T00:58:13;11.07;;;6.40;;
36205;SDS011;22242;48.796;9.930;2023-07-24T01:00:43;9.82;;;6.35;;
36205;SDS011;22242;48.796;9.930;2023-07-24T01:03:10;9.27;;;6.03;;
36205;SDS011;22242;48.796;9.930;2023-07-24T01:05:39;13.77;;;6.35;;
36205;SDS011;22242;48.796;9.930;2023-07-24T01:08:06;10.52;;;6.43;;
36205;SDS011;22242;48.796;9.930;2023-07-24T01:10:34;8.35;;;6.05;;
36205;SDS011;22242;48.796;9.930;2023-07-24T01:13:02;10.20;;;6.10;;
36205;SDS011;22242;48.796;9.930;2023-07-24T01:15:35;9.30;;;6.32;;
36205;SDS011;22242;48.796;9.930;2023-07-24T01:18:06;10.15;;;6.25;;
36205;SDS011;22242;48.796;9.930;2023-07-24T01:20:35;10.40;;;6.35;;
36205;SDS011;22242;48.796;9.930;2023-07-24T01:23:08;11.98;;;6.43;;
36205;SDS011;22242;48.796;9.930;2023-07-24T01:26:06;11.13;;;6.15;;
36205;SDS011;22242;48.796;9.930;2023-07-24T01:28:34;9.70;;;6.32;;
36205;SDS011;22242;48.796;9.930;2023-07-24T01:31:01;10.55;;;6.50;;
36205;SDS011;22242;48.796;9.930;2023-07-24T01:33:28;12.40;;;6.35;;
36205;SDS011;22242;48.796;9.930;2023-07-24T01:35:57;11.82;;;6.00;;
36205;SDS011;22242;48.796;9.930;2023-07-24T01:38:27;10.90;;;6.60;;
36205;SDS011;22242;48.796;9.930;2023-07-24T01:40:54;9.30;;;6.35;;
36205;SDS011;22242;48.796;9.930;2023-07-24T01:43:24;9.40;;;5.90;;
36205;SDS011;22242;48.796;9.930;2023-07-24T01:45:52;11.40;;;6.80;;
36205;SDS011;22242;48.796;9.930;2023-07-24T01:48:19;11.05;;;6.07;;
36205;SDS011;22242;48.796;9.930;2023-07-24T01:50:47;9.75;;;5.80;;
36205;SDS011;22242;48.796;9.930;2023-07-24T01:53:14;11.35;;;6.30;;
36205;SDS011;22242;48.796;9.930;2023-07-24T01:55:41;11.23;;;6.43;;
36205;SDS011;22242;48.796;9.930;2023-07-24T01:58:10;11.85;;;6.43;;
36205;SDS011;22242;48.796;9.930;2023-07-24T02:00:37;9.57;;;6.07;;
36205;SDS011;22242;48.796;9.930;2023-07-24T02:03:04;8.57;;;5.80;;
36205;SDS011;22242;48.796;9.930;2023-07-24T02:05:31;9.45;;;6.32;;
36205;SDS011;22242;48.796;9.930;2023-07-24T02:07:59;10.15;;;6.57;;
36205;SDS011;22242;48.796;9.930;2023-07-24T02:10:27;10.38;;;6.32;;
36205;SDS011;22242;48.796;9.930;2023-07-24T02:12:54;11.93;;;6.22;;
36205;SDS011;22242;48.796;9.930;2023-07-24T02:15:22;10.40;;;6.38;;
36205;SDS011;22242;48.796;9.930;2023-07-24T02:17:49;9.48;;;5.97;;
36205;SDS011;22242;48.796;9.930;2023-07-24T02:20:17;9.35;;;6.50;;
36205;SDS011;22242;48.796;9.930;2023-07-24T02:22:44;11.02;;;6.68;;
36205;SDS011;22242;48.796;9.930;2023-07-24T02:25:11;10.45;;;6.03;;
36205;SDS011;22242;48.796;9.930;2023-07-24T02:27:38;9.40;;;5.60;;
36205;SDS011;22242;48.796;9.930;2023-07-24T02:30:06;9.73;;;5.80;;
36205;SDS011;22242;48.796;9.930;2023-07-24T02:32:35;9.68;;;6.40;;
36205;SDS011;22242;48.796;9.930;2023-07-24T02:35:02;11.82;;;6.68;;
36205;SDS011;22242;48.796;9.930;2023-07-24T02:37:30;11.27;;;6.53;;
36205;SDS011;22242;48.796;9.930;2023-07-24T02:39:58;9.27;;;5.95;;
36205;SDS011;22242;48.796;9.930;2023-07-24T02:42:26;12.50;;;6.30;;
36205;SDS011;22242;48.796;9.930;2023-07-24T02:44:53;9.63;;;6.43;;
36205;SDS011;22242;48.796;9.930;2023-07-24T02:47:20;9.73;;;6.20;;
36205;SDS011;22242;48.796;9.930;2023-07-24T02:49:48;11.48;;;6.28;;
36205;SDS011;22242;48.796;9.930;2023-07-24T02:52:16;10.20;;;5.85;;
36205;SDS011;22242;48.796;9.930;2023-07-24T02:54:44;10.05;;;6.38;;
36205;SDS011;22242;48.796;9.930;2023-07-24T02:57:11;9.07;;;5.85;;
36205;SDS011;22242;48.796;9.930;2023-07-24T02:59:38;9.15;;;6.13;;
36205;SDS011;22242;48.796;9.930;2023-07-24T03:02:05;9.13;;;5.57;;
36205;SDS011;22242;48.796;9.930;2023-07-24T03:04:33;11.27;;;6.45;;
36205;SDS011;22242;48.796;9.930;2023-07-24T03:07:01;10.70;;;6.53;;
36205;SDS011;22242;48.796;9.930;2023-07-24T03:09:28;9.45;;;5.93;;
36205;SDS011;22242;48.796;9.930;2023-07-24T03:11:55;11.98;;;6.03;;
36205;SDS011;22242;48.796;9.930;2023-07-24T03:14:23;10.20;;;5.93;;
36205;SDS011;22242;48.796;9.930;2023-07-24T03:16:51;9.70;;;5.45;;
36205;SDS011;22242;48.796;9.930;2023-07-24T03:19:18;11.70;;;6.18;;
36205;SDS011;22242;48.796;9.930;2023-07-24T03:21:45;10.07;;;6.18;;
36205;SDS011;22242;48.796;9.930;2023-07-24T03:24:14;10.45;;;6.05;;
36205;SDS011;22242;48.796;9.930;2023-07-24T03:26:43;9.38;;;5.88;;
36205;SDS011;22242;48.796;9.930;2023-07-24T03:29:10;9.10;;;5.97;;
36205;SDS011;22242;48.796;9.930;2023-07-24T03:31:37;11.27;;;6.38;;
36205;SDS011;22242;48.796;9.930;2023-07-24T03:34:04;9.85;;;6.03;;
36205;SDS011;22242;48.796;9.930;2023-07-24T03:36:31;11.18;;;5.80;;
36205;SDS011;22242;48.796;9.930;2023-07-24T03:38:59;11.00;;;6.18;;
36205;SDS011;22242;48.796;9.930;2023-07-24T03:41:27;11.45;;;6.68;;
36205;SDS011;22242;48.796;9.930;2023-07-24T03:43:55;12.05;;;6.50;;
36205;SDS011;22242;48.796;9.930;2023-07-24T03:46:22;11.13;;;6.35;;
36205;SDS011;22242;48.796;9.930;2023-07-24T03:48:49;11.88;;;6.45;;
36205;SDS011;22242;48.796;9.930;2023-07-24T03:51:16;9.82;;;6.43;;
36205;SDS011;22242;48.796;9.930;2023-07-24T03:53:44;9.80;;;6.18;;
36205;SDS011;22242;48.796;9.930;2023-07-24T03:56:11;13.25;;;7.22;;
36205;SDS011;22242;48.796;9.930;2023-07-24T03:58:40;11.27;;;6.32;;
36205;SDS011;22242;48.796;9.930;2023-07-24T04:01:07;11.02;;;6.20;;
36205;SDS011;22242;48.796;9.930;2023-07-24T04:03:35;9.90;;;6.32;;
36205;SDS011;22242;48.796;9.930;2023-07-24T04:06:02;9.02;;;5.63;;
36205;SDS011;22242;48.796;9.930;2023-07-24T04:08:30;9.90;;;5.75;;
36205;SDS011;22242;48.796;9.930;2023-07-24T04:10:57;11.82;;;6.70;;
36205;SDS011;22242;48.796;9.930;2023-07-24T04:13:24;9.32;;;6.18;;
36205;SDS011;22242;48.796;9.930;2023-07-24T04:15:53;11.07;;;6.13;;
36205;SDS011;22242;48.796;9.930;2023-07-24T04:18:20;10.00;;;6.03;;
36205;SDS011;22242;48.796;9.930;2023-07-24T04:20:46;12.32;;;6.75;;
36205;SDS011;22242;48.796;9.930;2023-07-24T04:23:13;9.82;;;6.25;;
36205;SDS011;22242;48.796;9.930;2023-07-24T04:25:40;11.27;;;6.07;;
36205;SDS011;22242;48.796;9.930;2023-07-24T04:28:07;8.55;;;5.75;;
36205;SDS011;22242;48.796;9.930;2023-07-24T04:30:35;11.15;;;7.15;;
36205;SDS011;22242;48.796;9.930;2023-07-24T04:33:03;10.05;;;5.32;;
36205;SDS011;22242;48.796;9.930;2023-07-24T04:35:30;9.57;;;6.43;;
36205;SDS011;22242;48.796;9.930;2023-07-24T04:37:57;11.77;;;6.50;;
36205;SDS011;22242;48.796;9.930;2023-07-24T04:40:24;9.40;;;5.72;;
36205;SDS011;22242;48.796;9.930;2023-07-24T04:42:51;9.20;;;5.72;;
36205;SDS011;22242;48.796;9.930;2023-07-24T04:45:18;10.05;;;6.13;;
36205;SDS011;22242;48.796;9.930;2023-07-24T04:47:46;11.38;;;6.55;;
36205;SDS011;22242;48.796;9.930;2023-07-24T04:50:14;10.77;;;5.75;;
36205;SDS011;22242;48.796;9.930;2023-07-24T04:52:41;13.10;;;6.60;;
36205;SDS011;22242;48.796;9.930;2023-07-24T04:55:08;11.20;;;6.70;;
36205;SDS011;22242;48.796;9.930;2023-07-24T04:57:35;13.20;;;6.38;;
36205;SDS011;22242;48.796;9.930;2023-07-24T05:00:03;10.45;;;5.97;;
36205;SDS011;22242;48.796;9.930;2023-07-24T05:02:30;9.07;;;6.45;;
36205;SDS011;22242;48.796;9.930;2023-07-24T05:04:57;11.02;;;5.95;;
36205;SDS011;22242;48.796;9.930;2023-07-24T05:07:26;11.65;;;6.10;;
36205;SDS011;22242;48.796;9.930;2023-07-24T05:09:53;11.35;;;6.38;;
36205;SDS011;22242;48.796;9.930;2023-07-24T05:12:20;10.23;;;6.38;;
36205;SDS011;22242;48.796;9.930;2023-07-24T05:14:47;12.70;;;6.75;;
36205;SDS011;22242;48.796;9.930;2023-07-24T05:17:15;12.13;;;7.15;;
36205;SDS011;22242;48.796;9.930;2023-07-24T05:19:42;10.23;;;6.20;;
36205;SDS011;22242;48.796;9.930;2023-07-24T05:22:09;11.27;;;6.32;;
36205;SDS011;22242;48.796;9.930;2023-07-24T05:24:38;9.77;;;6.15;;
36205;SDS011;22242;48.796;9.930;2023-07-24T05:27:05;10.23;;;6.63;;
36205;SDS011;22242;48.796;9.930;2023-07-24T05:29:32;12.02;;;6.85;;
36205;SDS011;22242;48.796;9.930;2023-07-24T05:31:59;11.77;;;6.85;;
36205;SDS011;22242;48.796;9.930;2023-07-24T05:34:26;13.63;;;7.03;;
36205;SDS011;22242;48.796;9.930;2023-07-24T05:36:53;13.27;;;7.05;;
36205;SDS011;22242;48.796;9.930;2023-07-24T05:39:20;11.10;;;6.45;;
36205;SDS011;22242;48.796;9.930;2023-07-24T05:41:49;12.43;;;7.38;;
36205;SDS011;22242;48.796;9.930;2023-07-24T05:44:16;9.73;;;6.40;;
36205;SDS011;22242;48.796;9.930;2023-07-24T05:46:43;10.60;;;7.07;;
36205;SDS011;22242;48.796;9.930;2023-07-24T05:51:44;12.40;;;6.45;;
36205;SDS011;22242;48.796;9.930;2023-07-24T05:54:11;10.88;;;6.97;;
36205;SDS011;22242;48.796;9.930;2023-07-24T05:56:38;10.02;;;6.13;;
36205;SDS011;22242;48.796;9.930;2023-07-24T05:59:07;10.95;;;6.80;;
36205;SDS011;22242;48.796;9.930;2023-07-24T06:01:34;10.38;;;6.25;;
36205;SDS011;22242;48.796;9.930;2023-07-24T06:04:01;10.70;;;6.75;;
36205;SDS011;22242;48.796;9.930;2023-07-24T06:06:28;10.25;;;6.70;;
36205;SDS011;22242;48.796;9.930;2023-07-24T06:08:56;11.93;;;6.47;;
36205;SDS011;22242;48.796;9.930;2023-07-24T06:11:23;9.75;;;6.65;;
36205;SDS011;22242;48.796;9.930;2023-07-24T06:13:51;12.00;;;6.85;;
36205;SDS011;22242;48.796;9.930;2023-07-24T06:16:20;14.18;;;7.57;;
36205;SDS011;22242;48.796;9.930;2023-07-24T06:18:47;8.85;;;6.28;;
36205;SDS011;22242;48.796;9.930;2023-07-24T06:21:14;10.80;;;6.80;;
36205;SDS011;22242;48.796;9.930;2023-07-24T06:23:41;9.82;;;6.85;;
36205;SDS011;22242;48.796;9.930;2023-07-24T06:26:08;10.60;;;6.45;;
36205;SDS011;22242;48.796;9.930;2023-07-24T06:28:35;10.52;;;7.05;;
36205;SDS011;22242;48.796;9.930;2023-07-24T06:31:02;9.73;;;6.30;;
36205;SDS011;22242;48.796;9.930;2023-07-24T06:33:30;11.88;;;6.75;;
36205;SDS011;22242;48.796;9.930;2023-07-24T06:35:57;10.52;;;6.80;;
36205;SDS011;22242;48.796;9.930;2023-07-24T06:38:24;9.15;;;6.00;;
36205;SDS011;22242;48.796;9.930;2023-07-24T06:40:51;13.30;;;6.85;;
36205;SDS011;22242;48.796;9.930;2023-07-24T06:43:19;10.15;;;7.03;;
36205;SDS011;22242;48.796;9.930;2023-07-24T06:45:46;13.25;;;6.90;;
36205;SDS011;22242;48.796;9.930;2023-07-24T06:48:13;11.07;;;6.55;;
36205;SDS011;22242;48.796;9.930;2023-07-24T06:50:41;9.43;;;6.75;;
36205;SDS011;22242;48.796;9.930;2023-07-24T06:53:09;9.60;;;6.85;;
36205;SDS011;22242;48.796;9.930;2023-07-24T06:55:36;11.88;;;6.57;;
36205;SDS011;22242;48.796;9.930;2023-07-24T06:58:03;10.02;;;6.65;;
36205;SDS011;22242;48.796;9.930;2023-07-24T07:00:30;8.73;;;6.38;;
36205;SDS011;22242;48.796;9.930;2023-07-24T07:02:58;9.95;;;6.30;;
36205;SDS011;22242;48.796;9.930;2023-07-24T07:05:25;9.63;;;6.38;;
36205;SDS011;22242;48.796;9.930;2023-07-24T07:07:53;9.40;;;6.10;;
36205;SDS011;22242;48.796;9.930;2023-07-24T07:10:20;10.32;;;6.65;;
36205;SDS011;22242;48.796;9.930;2023-07-24T07:12:47;10.13;;;6.55;;
36205;SDS011;22242;48.796;9.930;2023-07-24T07:15:14;11.95;;;6.82;;
36205;SDS011;22242;48.796;9.930;2023-07-24T07:17:41;10.10;;;6.82;;
36205;SDS011;22242;48.796;9.930;2023-07-24T07:20:09;11.77;;;7.03;;
36205;SDS011;22242;48.796;9.930;2023-07-24T07:22:36;10.63;;;6.20;;
36205;SDS011;22242;48.796;9.930;2023-07-24T07:25:05;9.32;;;5.93;;
36205;SDS011;22242;48.796;9.930;2023-07-24T07:27:32;9.48;;;6.40;;
36205;SDS011;22242;48.796;9.930;2023-07-24T07:29:59;11.95;;;6.30;;
36205;SDS011;22242;48.796;9.930;2023-07-24T07:32:26;11.68;;;6.30;;
36205;SDS011;22242;48.796;9.930;2023-07-24T07:34:53;12.85;;;6.97;;
36205;SDS011;22242;48.796;9.930;2023-07-24T07:37:20;9.43;;;6.38;;
36205;SDS011;22242;48.796;9.930;2023-07-24T07:39:48;12.38;;;6.57;;
36205;SDS011;22242;48.796;9.930;2023-07-24T07:42:16;11.18;;;6.22;;
36205;SDS011;22242;48.796;9.930;2023-07-24T07:44:43;11.27;;;6.35;;
36205;SDS011;22242;48.796;9.930;2023-07-24T07:47:10;11.68;;;6.85;;
36205;SDS011;22242;48.796;9.930;2023-07-24T07:49:37;12.95;;;6.45;;
36205;SDS011;22242;48.796;9.930;2023-07-24T07:52:06;9.98;;;6.15;;
36205;SDS011;22242;48.796;9.930;2023-07-24T07:54:33;9.00;;;6.47;;
36205;SDS011;22242;48.796;9.930;2023-07-24T07:57:00;10.77;;;6.60;;
36205;SDS011;22242;48.796;9.930;2023-07-24T07:59:28;9.57;;;5.97;;
36205;SDS011;22242;48.796;9.930;2023-07-24T08:01:55;11.85;;;6.32;;
36205;SDS011;22242;48.796;9.930;2023-07-24T08:04:22;9.32;;;6.47;;
36205;SDS011;22242;48.796;9.930;2023-07-24T08:06:49;15.15;;;6.72;;
36205;SDS011;22242;48.796;9.930;2023-07-24T08:09:16;11.20;;;6.93;;
36205;SDS011;22242;48.796;9.930;2023-07-24T08:11:44;9.18;;;5.88;;
36205;SDS011;22242;48.796;9.930;2023-07-24T08:14:11;12.43;;;6.55;;
36205;SDS011;22242;48.796;9.930;2023-07-24T08:16:39;9.27;;;6.20;;
36205;SDS011;22242;48.796;9.930;2023-07-24T08:19:06;9.27;;;6.57;;
36205;SDS011;22242;48.796;9.930;2023-07-24T08:21:33;9.55;;;6.82;;
36205;SDS011;22242;48.796;9.930;2023-07-24T08:24:01;11.02;;;7.05;;
36205;SDS011;22242;48.796;9.930;2023-07-24T08:26:28;9.82;;;6.55;;
36205;SDS011;22242;48.796;9.930;2023-07-24T08:28:55;10.20;;;6.68;;
36205;SDS011;22242;48.796;9.930;2023-07-24T08:31:22;12.75;;;6.28;;
36205;SDS011;22242;48.796;9.930;2023-07-24T08:33:50;8.80;;;6.22;;
36205;SDS011;22242;48.796;9.930;2023-07-24T08:36:18;8.30;;;6.55;;
36205;SDS011;22242;48.796;9.930;2023-07-24T08:38:45;12.52;;;6.13;;
36205;SDS011;22242;48.796;9.930;2023-07-24T08:41:14;10.43;;;6.20;;
36205;SDS011;22242;48.796;9.930;2023-07-24T08:43:42;10.63;;;6.70;;
36205;SDS011;22242;48.796;9.930;2023-07-24T08:46:10;9.65;;;6.47;;
36205;SDS011;22242;48.796;9.930;2023-07-24T08:48:38;8.93;;;6.45;;
36205;SDS011;22242;48.796;9.930;2023-07-24T08:51:08;9.77;;;5.90;;
36205;SDS011;22242;48.796;9.930;2023-07-24T08:53:36;9.88;;;5.85;;
36205;SDS011;22242;48.796;9.930;2023-07-24T08:56:04;7.90;;;5.82;;
36205;SDS011;22242;48.796;9.930;2023-07-24T08:58:32;6.47;;;5.35;;
36205;SDS011;22242;48.796;9.930;2023-07-24T09:01:00;9.88;;;5.78;;
36205;SDS011;22242;48.796;9.930;2023-07-24T09:03:30;7.35;;;5.53;;
36205;SDS011;22242;48.796;9.930;2023-07-24T09:05:58;8.75;;;5.07;;
36205;SDS011;22242;48.796;9.930;2023-07-24T09:08:32;7.45;;;5.82;;
36205;SDS011;22242;48.796;9.930;2023-07-24T09:13:27;8.65;;;6.43;;
36205;SDS011;22242;48.796;9.930;2023-07-24T09:15:55;9.82;;;6.82;;
36205;SDS011;22242;48.796;9.930;2023-07-24T09:18:22;8.85;;;6.00;;
36205;SDS011;22242;48.796;9.930;2023-07-24T09:20:49;8.32;;;6.15;;
36205;SDS011;22242;48.796;9.930;2023-07-24T09:23:25;9.35;;;6.50;;
36205;SDS011;22242;48.796;9.930;2023-07-24T09:25:54;9.85;;;6.85;;
36205;SDS011;22242;48.796;9.930;2023-07-24T09:28:22;9.32;;;6.40;;
36205;SDS011;22242;48.796;9.930;2023-07-24T09:30:53;10.25;;;6.50;;
36205;SDS011;22242;48.796;9.930;2023-07-24T09:33:21;7.20;;;5.68;;
36205;SDS011;22242;48.796;9.930;2023-07-24T09:35:58;7.82;;;6.13;;
36205;SDS011;22242;48.796;9.930;2023-07-24T09:38:25;10.45;;;6.20;;
36205;SDS011;22242;48.796;9.930;2023-07-24T09:40:53;10.30;;;6.18;;
36205;SDS011;22242;48.796;9.930;2023-07-24T09:43:23;7.72;;;5.85;;
36205;SDS011;22242;48.796;9.930;2023-07-24T09:45:51;8.02;;;5.40;;
36205;SDS011;22242;48.796;9.930;2023-07-24T09:48:20;8.15;;;5.80;;
36205;SDS011;22242;48.796;9.930;2023-07-24T09:50:49;10.73;;;5.95;;
36205;SDS011;22242;48.796;9.930;2023-07-24T09:53:20;8.80;;;6.43;;
36205;SDS011;22242;48.796;9.930;2023-07-24T09:55:49;9.25;;;6.07;;
36205;SDS011;22242;48.796;9.930;2023-07-24T09:58:23;7.57;;;5.47;;
36205;SDS011;22242;48.796;9.930;2023-07-24T10:00:51;8.70;;;5.60;;
36205;SDS011;22242;48.796;9.930;2023-07-24T10:03:18;11.27;;;5.88;;
36205;SDS011;22242;48.796;9.930;2023-07-24T10:05:48;7.43;;;5.03;;
36205;SDS011;22242;48.796;9.930;2023-07-24T10:08:16;7.03;;;5.13;;
36205;SDS011;22242;48.796;9.930;2023-07-24T10:10:44;8.43;;;5.03;;
36205;SDS011;22242;48.796;9.930;2023-07-24T10:13:12;6.97;;;4.70;;
36205;SDS011;22242;48.796;9.930;2023-07-24T10:15:42;7.00;;;4.90;;
36205;SDS011;22242;48.796;9.930;2023-07-24T10:18:09;7.78;;;4.47;;
36205;SDS011;22242;48.796;9.930;2023-07-24T10:20:38;6.93;;;4.38;;
36205;SDS011;22242;48.796;9.930;2023-07-24T10:23:07;6.28;;;4.32;;
36205;SDS011;22242;48.796;9.930;2023-07-24T10:25:35;6.38;;;4.78;;
36205;SDS011;22242;48.796;9.930;2023-07-24T10:28:06;7.30;;;4.85;;
36205;SDS011;22242;48.796;9.930;2023-07-24T10:30:36;6.63;;;5.07;;
36205;SDS011;22242;48.796;9.930;2023-07-24T10:33:06;6.72;;;4.85;;
36205;SDS011;22242;48.796;9.930;2023-07-24T10:35:41;6.93;;;4.72;;
36205;SDS011;22242;48.796;9.930;2023-07-24T10:38:09;8.18;;;5.63;;
36205;SDS011;22242;48.796;9.930;2023-07-24T10:40:38;11.35;;;5.60;;
36205;SDS011;22242;48.796;9.930;2023-07-24T10:43:06;8.88;;;5.80;;
36205;SDS011;22242;48.796;9.930;2023-07-24T10:45:47;7.78;;;5.55;;
36205;SDS011;22242;48.796;9.930;2023-07-24T10:48:16;7.13;;;5.00;;
36205;SDS011;22242;48.796;9.930;2023-07-24T10:50:45;7.35;;;4.95;;
36205;SDS011;22242;48.796;9.930;2023-07-24T10:53:13;8.45;;;5.50;;
36205;SDS011;22242;48.796;9.930;2023-07-24T10:55:41;7.65;;;5.22;;
36205;SDS011;22242;48.796;9.930;2023-07-24T10:58:09;9.80;;;5.82;;
36205;SDS011;22242;48.796;9.930;2023-07-24T11:00:38;10.30;;;6.03;;
36205;SDS011;22242;48.796;9.930;2023-07-24T11:03:07;9.00;;;5.78;;
36205;SDS011;22242;48.796;9.930;2023-07-24T11:05:38;9.85;;;6.18;;
36205;SDS011;22242;48.796;9.930;2023-07-24T11:08:08;8.45;;;6.22;;
36205;SDS011;22242;48.796;9.930;2023-07-24T11:13:10;11.20;;;6.63;;
36205;SDS011;22242;48.796;9.930;2023-07-24T11:15:37;10.93;;;6.60;;
36205;SDS011;22242;48.796;9.930;2023-07-24T11:18:04;11.63;;;7.60;;
36205;SDS011;22242;48.796;9.930;2023-07-24T11:20:33;13.45;;;7.65;;
36205;SDS011;22242;48.796;9.930;2023-07-24T11:23:09;11.93;;;6.90;;
36205;SDS011;22242;48.796;9.930;2023-07-24T11:25:36;15.60;;;7.75;;
36205;SDS011;22242;48.796;9.930;2023-07-24T11:28:04;13.27;;;7.10;;
36205;SDS011;22242;48.796;9.930;2023-07-24T11:30:32;16.38;;;7.90;;
36205;SDS011;22242;48.796;9.930;2023-07-24T11:33:00;10.07;;;6.45;;
36205;SDS011;22242;48.796;9.930;2023-07-24T11:35:28;9.73;;;6.38;;
36205;SDS011;22242;48.796;9.930;2023-07-24T11:37:57;10.10;;;6.32;;
36205;SDS011;22242;48.796;9.930;2023-07-24T11:40:30;8.88;;;5.93;;
36205;SDS011;22242;48.796;9.930;2023-07-24T11:42:59;10.02;;;6.18;;
36205;SDS011;22242;48.796;9.930;2023-07-24T11:45:25;10.93;;;5.97;;
36205;SDS011;22242;48.796;9.930;2023-07-24T11:47:53;10.27;;;6.32;;
36205;SDS011;22242;48.796;9.930;2023-07-24T11:50:21;10.38;;;7.13;;
36205;SDS011;22242;48.796;9.930;2023-07-24T11:52:50;9.88;;;5.88;;
36205;SDS011;22242;48.796;9.930;2023-07-24T11:55:20;8.73;;;6.50;;
36205;SDS011;22242;48.796;9.930;2023-07-24T11:57:57;11.05;;;7.15;;
36205;SDS011;22242;48.796;9.930;2023-07-24T12:00:24;9.25;;;6.50;;
36205;SDS011;22242;48.796;9.930;2023-07-24T12:02:53;9.88;;;6.28;;
36205;SDS011;22242;48.796;9.930;2023-07-24T12:05:25;9.63;;;6.20;;
36205;SDS011;22242;48.796;9.930;2023-07-24T12:07:53;9.20;;;5.80;;
36205;SDS011;22242;48.796;9.930;2023-07-24T12:10:26;10.05;;;6.60;;
36205;SDS011;22242;48.796;9.930;2023-07-24T12:12:54;6.57;;;5.30;;
36205;SDS011;22242;48.796;9.930;2023-07-24T12:15:24;7.88;;;5.78;;
36205;SDS011;22242;48.796;9.930;2023-07-24T12:17:52;8.45;;;6.00;;
36205;SDS011;22242;48.796;9.930;2023-07-24T12:20:19;7.88;;;5.32;;
36205;SDS011;22242;48.796;9.930;2023-07-24T12:22:46;7.55;;;5.00;;
36205;SDS011;22242;48.796;9.930;2023-07-24T12:25:13;7.55;;;5.40;;
36205;SDS011;22242;48.796;9.930;2023-07-24T12:27:42;6.32;;;5.35;;
36205;SDS011;22242;48.796;9.930;2023-07-24T12:30:09;7.72;;;4.28;;
36205;SDS011;22242;48.796;9.930;2023-07-24T12:32:36;8.52;;;4.40;;
36205;SDS011;22242;48.796;9.930;2023-07-24T12:35:03;6.13;;;4.20;;
36205;SDS011;22242;48.796;9.930;2023-07-24T12:37:31;6.72;;;4.00;;
36205;SDS011;22242;48.796;9.930;2023-07-24T12:39:58;5.82;;;4.13;;
36205;SDS011;22242;48.796;9.930;2023-07-24T12:42:25;6.00;;;4.20;;
36205;SDS011;22242;48.796;9.930;2023-07-24T12:44:54;6.40;;;3.75;;
36205;SDS011;22242;48.796;9.930;2023-07-24T12:47:22;5.13;;;3.67;;
36205;SDS011;22242;48.796;9.930;2023-07-24T12:49:49;4.18;;;3.55;;
36205;SDS011;22242;48.796;9.930;2023-07-24T12:52:17;4.82;;;3.72;;
36205;SDS011;22242;48.796;9.930;2023-07-24T12:54:44;6.32;;;4.15;;
36205;SDS011;22242;48.796;9.930;2023-07-24T12:57:11;8.27;;;3.80;;
36205;SDS011;22242;48.796;9.930;2023-07-24T12:59:38;3.72;;;3.10;;
36205;SDS011;22242;48.796;9.930;2023-07-24T13:02:07;4.65;;;4.03;;
36205;SDS011;22242;48.796;9.930;2023-07-24T13:04:34;6.38;;;3.63;;
36205;SDS011;22242;48.796;9.930;2023-07-24T13:07:01;4.50;;;3.75;;
36205;SDS011;22242;48.796;9.930;2023-07-24T13:09:29;6.35;;;3.45;;
36205;SDS011;22242;48.796;9.930;2023-07-24T13:11:56;4.40;;;3.28;;
36205;SDS011;22242;48.796;9.930;2023-07-24T13:14:23;5.07;;;3.33;;
36205;SDS011;22242;48.796;9.930;2023-07-24T13:16:50;5.22;;;3.28;;
36205;SDS011;22242;48.796;9.930;2023-07-24T13:19:19;5.13;;;4.05;;
36205;SDS011;22242;48.796;9.930;2023-07-24T13:21:45;4.80;;;3.35;;
36205;SDS011;22242;48.796;9.930;2023-07-24T13:24:13;4.20;;;3.80;;
36205;SDS011;22242;48.796;9.930;2023-07-24T13:26:40;5.25;;;3.75;;
36205;SDS011;22242;48.796;9.930;2023-07-24T13:29:08;5.13;;;3.92;;
36205;SDS011;22242;48.796;9.930;2023-07-24T13:31:35;4.10;;;3.63;;
36205;SDS011;22242;48.796;9.930;2023-07-24T13:34:02;3.95;;;3.30;;
36205;SDS011;22242;48.796;9.930;2023-07-24T13:36:30;5.88;;;3.83;;
36205;SDS011;22242;48.796;9.930;2023-07-24T13:38:58;4.63;;;3.70;;
36205;SDS011;22242;48.796;9.930;2023-07-24T13:41:24;6.32;;;3.75;;
36205;SDS011;22242;48.796;9.930;2023-07-24T13:43:51;6.57;;;3.75;;
36205;SDS011;22242;48.796;9.930;2023-07-24T13:46:18;4.30;;;3.90;;
36205;SDS011;22242;48.796;9.930;2023-07-24T13:48:45;4.32;;;3.63;;
36205;SDS011;22242;48.796;9.930;2023-07-24T13:51:12;3.65;;;3.33;;
36205;SDS011;22242;48.796;9.930;2023-07-24T13:53:41;4.75;;;3.58;;
36205;SDS011;22242;48.796;9.930;2023-07-24T13:56:08;5.63;;;4.10;;
36205;SDS011;22242;48.796;9.930;2023-07-24T13:58:35;4.90;;;3.92;;
36205;SDS011;22242;48.796;9.930;2023-07-24T14:01:02;9.43;;;4.13;;
36205;SDS011;22242;48.796;9.930;2023-07-24T14:03:32;4.95;;;4.15;;
36205;SDS011;22242;48.796;9.930;2023-07-24T14:05:59;5.43;;;4.00;;
36205;SDS011;22242;48.796;9.930;2023-07-24T14:08:26;4.93;;;3.65;;
36205;SDS011;22242;48.796;9.930;2023-07-24T14:10:54;5.80;;;3.97;;
36205;SDS011;22242;48.796;9.930;2023-07-24T14:13:21;5.63;;;4.07;;
36205;SDS011;22242;48.796;9.930;2023-07-24T14:15:48;4.68;;;3.70;;
36205;SDS011;22242;48.796;9.930;2023-07-24T14:18:15;4.57;;;3.85;;
36205;SDS011;22242;48.796;9.930;2023-07-24T14:20:42;5.45;;;4.03;;
36205;SDS011;22242;48.796;9.930;2023-07-24T14:23:09;4.60;;;3.97;;
36205;SDS011;22242;48.796;9.930;2023-07-24T14:25:36;4.82;;;3.97;;
36205;SDS011;22242;48.796;9.930;2023-07-24T14:28:05;4.72;;;4.00;;
36205;SDS011;22242;48.796;9.930;2023-07-24T14:30:32;5.63;;;3.83;;
36205;SDS011;22242;48.796;9.930;2023-07-24T14:32:59;4.43;;;3.88;;
36205;SDS011;22242;48.796;9.930;2023-07-24T14:35:26;4.43;;;3.70;;
36205;SDS011;22242;48.796;9.930;2023-07-24T14:37:53;5.47;;;4.10;;
36205;SDS011;22242;48.796;9.930;2023-07-24T14:40:20;6.53;;;4.13;;
36205;SDS011;22242;48.796;9.930;2023-07-24T14:42:47;4.30;;;3.33;;
36205;SDS011;22242;48.796;9.930;2023-07-24T14:45:15;5.55;;;3.83;;
36205;SDS011;22242;48.796;9.930;2023-07-24T14:47:42;4.60;;;3.60;;
36205;SDS011;22242;48.796;9.930;2023-07-24T14:50:09;4.68;;;3.53;;
36205;SDS011;22242;48.796;9.930;2023-07-24T14:52:36;4.82;;;3.55;;